createdAt,value
2022-10-17T00:02:09.304Z,46.86
2022-10-17T00:04:36.678Z,47.20
2022-10-17T00:07:06.825Z,47.16
2022-10-17T00:09:37.621Z,47.06
2022-10-17T00:12:11.588Z,47.27
2022-10-17T00:14:39.257Z,46.79
2022-10-17T00:17:12.632Z,47.36
2022-10-17T00:19:42.894Z,46.84
2022-10-17T00:22:10.262Z,47.14
2022-10-17T00:24:45.157Z,47.05
2022-10-17T00:27:15.383Z,46.93
2022-10-17T00:29:52.610Z,46.88
2022-10-17T00:32:25.406Z,46.71
2022-10-17T00:34:56.624Z,46.83
2022-10-17T00:37:26.467Z,46.96
2022-10-17T00:39:54.514Z,46.90
2022-10-17T00:42:25.200Z,47.01
2022-10-17T00:45:07.944Z,46.86
2022-10-17T00:47:40.043Z,46.79
2022-10-17T00:50:08.278Z,46.66
2022-10-17T00:52:36.189Z,46.47
2022-10-17T00:55:29.375Z,46.59
2022-10-17T00:57:58.127Z,46.76
2022-10-17T01:00:26.330Z,46.67
2022-10-17T01:03:01.959Z,46.73
2022-10-17T01:05:30.203Z,46.37
2022-10-17T01:08:01.123Z,46.10
2022-10-17T01:10:40.244Z,45.72
2022-10-17T01:13:34.811Z,45.65
2022-10-17T01:16:14.770Z,45.55
2022-10-17T01:19:07.518Z,45.77
2022-10-17T01:22:00.307Z,45.36
2022-10-17T01:24:55.102Z,45.28
2022-10-17T01:27:38.356Z,45.11
2022-10-17T01:30:27.147Z,45.52
2022-10-17T01:33:14.533Z,45.68
2022-10-17T01:35:52.399Z,45.61
2022-10-17T01:38:31.871Z,45.54
2022-10-17T01:41:22.861Z,45.99
2022-10-17T01:44:00.381Z,45.54
2022-10-17T01:46:45.218Z,45.88
2022-10-17T01:49:17.673Z,46.06
2022-10-17T01:51:56.310Z,45.73
2022-10-17T01:54:36.869Z,46.40
2022-10-17T01:57:08.584Z,46.27
2022-10-17T01:59:42.133Z,45.96
2022-10-17T02:02:11.743Z,45.84
2022-10-17T02:04:41.753Z,46.38
2022-10-17T02:07:10.891Z,45.92
2022-10-17T02:09:38.916Z,46.08
2022-10-17T02:12:09.460Z,46.50
2022-10-17T02:14:46.310Z,46.52
2022-10-17T02:17:25.206Z,46.26
2022-10-17T02:20:18.788Z,46.31
2022-10-17T02:22:56.551Z,46.44
2022-10-17T02:25:34.395Z,46.46
2022-10-17T02:28:29.738Z,46.10
2022-10-17T02:31:16.233Z,46.61
2022-10-17T02:34:04.283Z,46.31
2022-10-17T02:36:39.818Z,46.09
2022-10-17T02:39:09.837Z,46.23
2022-10-17T02:41:38.840Z,46.01
2022-10-17T02:44:17.710Z,45.82
2022-10-17T02:46:55.726Z,45.97
2022-10-17T02:49:31.486Z,46.08
2022-10-17T02:52:20.831Z,46.33
2022-10-17T02:54:56.121Z,46.24
2022-10-17T02:57:34.058Z,46.44
2022-10-17T03:00:07.558Z,46.18
2022-10-17T03:02:44.469Z,46.00
2022-10-17T03:05:28.637Z,46.13
2022-10-17T03:08:01.286Z,46.29
2022-10-17T03:10:35.072Z,46.12
2022-10-17T03:13:11.044Z,46.51
2022-10-17T03:15:44.034Z,46.32
2022-10-17T03:18:19.938Z,46.31
2022-10-17T03:20:52.466Z,46.60
2022-10-17T03:23:20.493Z,46.27
2022-10-17T03:25:50.235Z,46.43
2022-10-17T03:28:20.495Z,46.08
2022-10-17T03:30:48.108Z,46.73
2022-10-17T03:33:21.311Z,46.50
2022-10-17T03:35:54.566Z,46.48
2022-10-17T03:38:27.683Z,46.47
2022-10-17T03:41:00.146Z,46.98
2022-10-17T03:43:29.734Z,47.75
2022-10-17T03:46:01.280Z,49.24
2022-10-17T03:48:31.020Z,48.53
2022-10-17T03:51:01.681Z,49.22
2022-10-17T03:53:33.425Z,49.38
2022-10-17T03:56:15.876Z,49.51
2022-10-17T03:58:44.620Z,49.36
2022-10-17T04:01:16.503Z,49.72
2022-10-17T04:03:44.489Z,49.30
2022-10-17T04:06:12.891Z,49.21
2022-10-17T04:08:42.902Z,48.99
2022-10-17T04:11:23.757Z,48.97
2022-10-17T04:13:56.956Z,48.73
2022-10-17T04:16:25.491Z,48.85
2022-10-17T04:19:07.894Z,48.79
2022-10-17T04:21:40.707Z,48.60
2022-10-17T04:24:11.929Z,48.70
2022-10-17T04:27:03.960Z,48.42
2022-10-17T04:29:35.948Z,48.69
2022-10-17T04:32:27.243Z,48.35
2022-10-17T04:35:02.403Z,48.52
2022-10-17T04:37:30.466Z,48.43
2022-10-17T04:39:59.781Z,48.29
2022-10-17T04:42:30.125Z,48.24
2022-10-17T04:44:59.815Z,48.30
2022-10-17T04:47:30.003Z,48.13
2022-10-17T04:49:57.395Z,48.05
2022-10-17T04:52:25.740Z,48.13
2022-10-17T04:54:58.993Z,48.13
2022-10-17T04:57:27.584Z,48.26
2022-10-17T05:03:15.316Z,48.09
2022-10-17T05:05:44.317Z,48.03
2022-10-17T05:08:13.039Z,47.84
2022-10-17T05:10:43.113Z,47.85
2022-10-17T05:13:12.170Z,47.86
2022-10-17T05:15:42.057Z,47.92
2022-10-17T05:18:09.867Z,47.81
2022-10-17T05:20:41.822Z,48.09
2022-10-17T05:23:13.927Z,48.13
2022-10-17T05:25:46.004Z,48.22
2022-10-17T05:28:18.147Z,48.05
2022-10-17T05:30:53.120Z,48.04
2022-10-17T05:33:20.765Z,48.38
2022-10-17T05:35:48.485Z,48.39
2022-10-17T05:38:19.373Z,48.03
2022-10-17T05:40:51.113Z,47.92
2022-10-17T05:43:19.699Z,47.76
2022-10-17T05:45:48.724Z,48.10
2022-10-17T05:48:26.413Z,47.43
2022-10-17T05:51:02.650Z,47.71
2022-10-17T05:53:32.331Z,47.72
2022-10-17T05:56:06.099Z,47.32
2022-10-17T05:58:52.375Z,47.53
2022-10-17T06:01:47.309Z,47.06
2022-10-17T06:04:24.473Z,47.36
2022-10-17T06:06:57.804Z,46.85
2022-10-17T06:09:30.945Z,46.75
2022-10-17T06:12:07.877Z,47.22
2022-10-17T06:14:36.375Z,46.73
2022-10-17T06:17:15.537Z,46.44
2022-10-17T06:19:45.839Z,45.74
2022-10-17T06:22:18.458Z,45.52
2022-10-17T06:25:11.545Z,45.00
2022-10-17T06:27:39.031Z,44.22
2022-10-17T06:30:07.293Z,43.35
2022-10-17T06:32:35.056Z,43.54
2022-10-17T06:35:05.714Z,43.66
2022-10-17T06:37:37.136Z,44.44
2022-10-17T06:40:13.221Z,44.51
2022-10-17T06:42:44.304Z,44.41
2022-10-17T06:45:28.518Z,43.85
2022-10-17T06:48:31.321Z,44.02
2022-10-17T06:51:11.650Z,43.51
2022-10-17T06:53:51.059Z,43.33
2022-10-17T06:56:37.080Z,43.11
2022-10-17T06:59:28.327Z,43.05
2022-10-17T07:02:24.194Z,42.43
2022-10-17T07:04:54.251Z,41.12
2022-10-17T07:07:21.790Z,40.38
2022-10-17T07:09:49.590Z,40.50
2022-10-17T07:12:19.545Z,40.70
2022-10-17T07:14:47.515Z,40.84
2022-10-17T07:17:26.335Z,41.32
2022-10-17T07:24:27.329Z,41.15
2022-10-17T07:27:25.328Z,42.27
2022-10-17T07:29:55.491Z,42.02
2022-10-17T07:32:41.030Z,41.95
2022-10-17T07:35:11.484Z,40.78
2022-10-17T07:37:48.930Z,40.94
2022-10-17T07:40:23.099Z,40.34
2022-10-17T07:42:56.362Z,40.84
2022-10-17T07:45:28.228Z,40.07
2022-10-17T07:47:58.130Z,40.30
2022-10-17T07:50:29.316Z,40.22
2022-10-17T07:53:04.333Z,40.06
2022-10-17T07:55:38.862Z,40.79
2022-10-17T07:58:11.271Z,41.58
2022-10-17T08:00:48.521Z,41.48
2022-10-17T08:03:24.478Z,41.85
2022-10-17T08:06:02.549Z,42.64
2022-10-17T08:08:35.680Z,42.78
2022-10-17T08:11:13.393Z,42.48
2022-10-17T08:13:44.499Z,42.28
2022-10-17T08:16:19.964Z,42.47
2022-10-17T08:18:53.712Z,42.42
2022-10-17T08:21:22.825Z,42.03
2022-10-17T08:23:55.911Z,41.81
2022-10-17T08:26:27.038Z,41.14
2022-10-17T08:28:55.444Z,42.09
2022-10-17T08:31:27.469Z,41.90
2022-10-17T08:34:00.958Z,42.59
2022-10-17T08:36:29.393Z,42.25
2022-10-17T08:38:57.980Z,41.97
2022-10-17T08:41:31.325Z,42.10
2022-10-17T08:44:36.889Z,41.90
2022-10-17T08:47:10.419Z,42.28
2022-10-17T08:49:52.688Z,42.29
2022-10-17T08:52:30.451Z,42.60
2022-10-17T08:55:01.220Z,42.60
2022-10-17T08:57:36.592Z,42.77
2022-10-17T09:00:14.820Z,42.28
2022-10-17T09:03:26.879Z,42.33
2022-10-17T09:06:07.012Z,43.03
2022-10-17T09:08:59.428Z,43.25
2022-10-17T09:11:48.030Z,43.18
2022-10-17T09:14:44.478Z,43.02
2022-10-17T09:17:36.555Z,43.22
2022-10-17T09:20:18.102Z,43.20
2022-10-17T09:22:59.990Z,43.29
2022-10-17T09:25:28.510Z,44.20
2022-10-17T09:28:20.044Z,44.52
2022-10-17T09:31:13.303Z,44.29
2022-10-17T09:33:54.234Z,44.46
2022-10-17T09:36:34.194Z,44.49
2022-10-17T09:39:15.407Z,44.30
2022-10-17T09:41:49.664Z,43.61
2022-10-17T09:44:25.113Z,44.04
2022-10-17T09:47:11.835Z,43.91
2022-10-17T09:49:47.812Z,43.88
2022-10-17T09:52:42.227Z,43.75
2022-10-17T09:55:59.646Z,43.92
2022-10-17T09:58:51.390Z,44.14
2022-10-17T10:01:34.964Z,44.35
2022-10-17T10:04:17.459Z,44.61
2022-10-17T10:07:14.659Z,44.89
2022-10-17T10:09:48.450Z,44.92
2022-10-17T10:12:29.039Z,44.22
2022-10-17T10:15:27.862Z,44.33
2022-10-17T10:18:04.050Z,44.54
2022-10-17T10:20:37.252Z,43.96
2022-10-17T10:23:21.568Z,43.39
2022-10-17T10:26:01.457Z,42.12
2022-10-17T10:28:41.243Z,41.65
2022-10-17T10:31:15.662Z,41.30
2022-10-17T10:33:48.185Z,41.90
2022-10-17T10:36:23.121Z,42.44
2022-10-17T10:39:01.217Z,43.10
2022-10-17T10:41:50.523Z,43.73
2022-10-17T10:44:27.699Z,43.87
2022-10-17T10:47:19.082Z,44.16
2022-10-17T10:49:52.899Z,44.65
2022-10-17T10:52:42.182Z,44.96
2022-10-17T10:55:27.894Z,44.74
2022-10-17T10:58:06.075Z,45.18
2022-10-17T11:00:54.137Z,45.40
2022-10-17T11:03:31.381Z,45.59
2022-10-17T11:06:25.072Z,45.65
2022-10-17T11:09:11.849Z,45.71
2022-10-17T11:11:48.346Z,45.38
2022-10-17T11:14:57.124Z,45.71
2022-10-17T11:18:10.147Z,45.72
2022-10-17T11:21:42.731Z,45.36
2022-10-17T11:24:36.161Z,45.52
2022-10-17T11:27:08.300Z,45.34
2022-10-17T11:29:40.118Z,45.76
2022-10-17T11:32:23.234Z,46.00
2022-10-17T11:35:19.709Z,46.08
2022-10-17T11:37:56.527Z,45.94
2022-10-17T11:40:42.720Z,46.20
2022-10-17T11:43:22.124Z,46.08
2022-10-17T11:45:57.203Z,46.25
2022-10-17T11:49:16.130Z,45.96
2022-10-17T11:52:02.676Z,46.22
2022-10-17T11:54:39.254Z,46.13
2022-10-17T11:57:17.583Z,46.04
2022-10-17T11:59:56.708Z,46.28
2022-10-17T12:02:36.852Z,46.57
2022-10-17T12:05:23.883Z,46.81
2022-10-17T12:08:09.564Z,46.83
2022-10-17T12:10:51.163Z,46.84
2022-10-17T12:13:35.769Z,46.50
2022-10-17T12:16:21.011Z,46.65
2022-10-17T12:19:02.649Z,46.53
2022-10-17T12:22:07.739Z,46.54
2022-10-17T12:24:45.311Z,45.98
2022-10-17T12:27:32.545Z,45.68
2022-10-17T12:30:31.257Z,45.60
2022-10-17T12:33:22.625Z,45.99
2022-10-17T12:36:21.191Z,45.57
2022-10-17T12:39:01.313Z,45.89
2022-10-17T12:41:54.058Z,45.62
2022-10-17T12:44:25.111Z,45.72
2022-10-17T12:47:11.416Z,45.50
2022-10-17T12:49:45.724Z,45.82
2022-10-17T12:55:27.700Z,45.41
2022-10-17T12:58:08.427Z,45.40
2022-10-17T13:01:29.531Z,45.54
2022-10-17T13:04:06.135Z,44.96
2022-10-17T13:06:43.642Z,45.06
2022-10-17T13:09:50.332Z,44.63
2022-10-17T13:12:28.560Z,44.11
2022-10-17T13:19:54.688Z,43.68
2022-10-17T13:22:33.586Z,43.96
2022-10-17T13:25:14.518Z,43.25
2022-10-17T13:27:43.467Z,42.74
2022-10-17T13:30:23.350Z,42.05
2022-10-17T13:32:55.340Z,42.06
2022-10-17T13:38:32.617Z,42.88
2022-10-17T13:41:34.785Z,43.29
2022-10-17T13:44:20.307Z,42.89
2022-10-17T13:46:52.109Z,42.45
2022-10-17T13:49:39.771Z,42.41
2022-10-17T13:52:17.053Z,42.49
2022-10-17T13:54:52.050Z,43.11
2022-10-17T13:57:31.409Z,43.24
2022-10-17T14:00:11.780Z,43.56
2022-10-17T14:02:47.507Z,43.11
2022-10-17T14:05:23.857Z,42.71
2022-10-17T14:08:22.856Z,42.56
2022-10-17T14:10:56.158Z,42.19
2022-10-17T14:13:41.083Z,41.81
2022-10-17T14:16:13.905Z,41.61
2022-10-17T14:18:47.567Z,40.99
2022-10-17T14:21:43.228Z,40.89
2022-10-17T14:24:21.504Z,40.71
2022-10-17T14:27:01.525Z,41.19
2022-10-17T14:29:50.049Z,41.78
2022-10-17T14:32:18.901Z,42.16
2022-10-17T14:34:52.716Z,42.72
2022-10-17T14:37:39.182Z,42.76
2022-10-17T14:40:19.685Z,43.08
2022-10-17T14:43:05.240Z,43.20
2022-10-17T14:45:40.214Z,42.55
2022-10-17T14:48:19.062Z,42.05
2022-10-17T14:51:15.672Z,40.20
2022-10-17T14:54:05.586Z,39.61
2022-10-17T14:56:41.683Z,39.59
2022-10-17T14:59:18.190Z,39.08
2022-10-17T15:01:52.296Z,39.02
2022-10-17T15:04:25.822Z,39.18
2022-10-17T15:06:59.641Z,40.10
2022-10-17T15:09:29.145Z,40.59
2022-10-17T15:12:02.966Z,41.28
2022-10-17T15:14:34.415Z,41.97
2022-10-17T15:17:13.021Z,42.39
2022-10-17T15:19:51.414Z,42.62
2022-10-17T15:22:24.507Z,42.83
2022-10-17T15:24:57.919Z,42.48
2022-10-17T15:27:26.767Z,42.72
2022-10-17T15:29:55.028Z,42.34
2022-10-17T15:32:23.420Z,43.01
2022-10-17T15:34:56.931Z,43.06
2022-10-17T15:37:26.328Z,43.29
2022-10-17T15:39:58.382Z,43.43
2022-10-17T15:42:34.266Z,43.21
2022-10-17T15:45:04.698Z,44.53
2022-10-17T15:47:41.192Z,44.39
2022-10-17T15:50:15.718Z,44.38
2022-10-17T15:52:53.253Z,44.34
2022-10-17T15:55:27.169Z,44.71
2022-10-17T15:57:58.463Z,44.98
2022-10-17T16:00:26.506Z,45.04
2022-10-17T16:03:06.981Z,44.77
2022-10-17T16:05:35.288Z,45.19
2022-10-17T16:08:06.919Z,45.24
2022-10-17T16:10:42.547Z,45.36
2022-10-17T16:13:20.164Z,45.32
2022-10-17T16:15:48.193Z,45.44
2022-10-17T16:18:21.491Z,45.53
2022-10-17T16:20:52.350Z,45.55
2022-10-17T16:23:20.148Z,45.16
2022-10-17T16:25:51.925Z,44.56
2022-10-17T16:28:22.045Z,44.80
2022-10-17T16:30:58.124Z,45.52
2022-10-17T16:33:27.938Z,45.21
2022-10-17T16:35:59.003Z,45.08
2022-10-17T16:38:33.755Z,44.64
2022-10-17T16:41:01.883Z,45.14
2022-10-17T16:43:36.882Z,44.78
2022-10-17T16:46:10.137Z,45.08
2022-10-17T16:48:43.309Z,44.98
2022-10-17T16:51:14.208Z,44.79
2022-10-17T16:53:48.281Z,44.85
2022-10-17T16:56:19.055Z,44.74
2022-10-17T16:58:51.523Z,45.26
2022-10-17T17:01:25.156Z,45.56
2022-10-17T17:03:59.923Z,45.23
2022-10-17T17:06:32.438Z,45.10
2022-10-17T17:09:00.497Z,45.17
2022-10-17T17:11:34.519Z,44.99
2022-10-17T17:14:05.581Z,45.66
2022-10-17T17:16:49.064Z,45.39
2022-10-17T17:19:26.177Z,45.58
2022-10-17T17:22:00.149Z,45.43
2022-10-17T17:24:31.793Z,45.90
2022-10-17T17:26:59.234Z,45.77
2022-10-17T17:29:32.453Z,45.47
2022-10-17T17:32:05.685Z,45.80
2022-10-17T17:34:39.269Z,45.33
2022-10-17T17:37:08.819Z,46.22
2022-10-17T17:39:39.510Z,45.94
2022-10-17T17:42:12.861Z,46.06
2022-10-17T17:44:43.414Z,45.70
2022-10-17T17:47:16.391Z,46.11
2022-10-17T17:49:49.142Z,46.04
2022-10-17T17:52:16.496Z,46.27
2022-10-17T17:54:44.673Z,45.90
2022-10-17T17:57:17.811Z,45.63
2022-10-17T17:59:45.384Z,45.66
2022-10-17T18:02:14.058Z,45.81
2022-10-17T18:04:44.254Z,46.32
2022-10-17T18:07:17.793Z,46.10
2022-10-17T18:09:49.214Z,45.95
2022-10-17T18:12:16.924Z,46.35
2022-10-17T18:14:44.909Z,46.14
2022-10-17T18:17:12.558Z,46.12
2022-10-17T18:19:42.245Z,45.71
2022-10-17T18:22:10.689Z,46.12
2022-10-17T18:24:43.059Z,46.05
2022-10-17T18:27:19.131Z,46.17
2022-10-17T18:29:51.246Z,45.84
2022-10-17T18:32:26.658Z,45.68
2022-10-17T18:34:54.549Z,45.79
2022-10-17T18:37:27.507Z,46.07
2022-10-17T18:40:03.459Z,45.91
2022-10-17T18:42:34.180Z,45.81
2022-10-17T18:45:05.849Z,45.72
2022-10-17T18:47:33.490Z,45.56
2022-10-17T18:50:06.865Z,46.18
2022-10-17T18:52:40.454Z,46.21
2022-10-17T18:55:11.082Z,45.83
2022-10-17T18:57:44.265Z,46.19
2022-10-17T19:00:14.708Z,46.26
2022-10-17T19:02:45.736Z,46.14
2022-10-17T19:05:13.263Z,46.16
2022-10-17T19:07:43.404Z,46.06
2022-10-17T19:10:19.502Z,46.23
2022-10-17T19:12:50.121Z,45.99
2022-10-17T19:15:23.745Z,46.28
2022-10-17T19:17:56.330Z,46.36
2022-10-17T19:20:26.571Z,45.97
2022-10-17T19:22:56.856Z,46.41
2022-10-17T19:25:25.362Z,45.88
2022-10-17T19:27:55.724Z,46.11
2022-10-17T19:30:28.399Z,46.00
2022-10-17T19:33:01.956Z,45.98
2022-10-17T19:35:32.375Z,45.96
2022-10-17T19:38:05.371Z,45.70
2022-10-17T19:40:35.166Z,46.00
2022-10-17T19:43:05.373Z,46.03
2022-10-17T19:45:35.619Z,46.17
2022-10-17T19:48:04.609Z,46.31
2022-10-17T19:50:36.724Z,45.92
2022-10-17T19:53:08.877Z,46.34
2022-10-17T19:55:36.517Z,46.39
2022-10-17T19:58:04.044Z,45.89
2022-10-17T20:00:32.822Z,46.34
2022-10-17T20:03:02.546Z,46.05
2022-10-17T20:05:40.499Z,46.17
2022-10-17T20:08:09.287Z,46.20
2022-10-17T20:10:39.867Z,45.93
2022-10-17T20:13:10.694Z,45.78
2022-10-17T20:15:41.641Z,45.97
2022-10-17T20:18:16.507Z,46.01
2022-10-17T20:20:44.596Z,45.75
2022-10-17T20:23:15.470Z,46.15
2022-10-17T20:25:46.340Z,45.70
2022-10-17T20:28:16.951Z,46.00
2022-10-17T20:30:48.654Z,45.93
2022-10-17T20:33:26.342Z,46.04
2022-10-17T20:36:00.395Z,46.00
2022-10-17T20:38:35.974Z,45.77
2022-10-17T20:41:08.022Z,45.88
2022-10-17T20:43:40.931Z,46.06
2022-10-17T20:46:35.011Z,46.29
2022-10-17T20:49:07.352Z,46.24
2022-10-17T20:51:36.021Z,45.80
2022-10-17T20:54:07.053Z,46.23
2022-10-17T20:56:38.696Z,46.19
2022-10-17T20:59:11.219Z,45.95
2022-10-17T21:01:42.684Z,46.24
2022-10-17T21:07:04.840Z,45.84
2022-10-17T21:09:32.901Z,45.43
2022-10-17T21:14:36.536Z,44.97
2022-10-17T21:17:07.257Z,44.55
2022-10-17T21:19:37.536Z,44.77
2022-10-17T21:22:08.326Z,45.01
2022-10-17T21:24:38.319Z,45.09
2022-10-17T21:27:31.344Z,45.34
2022-10-17T21:29:58.905Z,45.54
2022-10-17T21:32:40.364Z,45.54
2022-10-17T21:35:23.760Z,45.60
2022-10-17T21:37:51.511Z,45.52
2022-10-17T21:40:22.172Z,45.53
2022-10-17T21:42:52.509Z,45.63
2022-10-17T21:45:25.892Z,45.56
2022-10-17T21:48:12.547Z,45.77
2022-10-17T21:50:42.973Z,45.84
2022-10-17T21:53:11.564Z,45.65
2022-10-17T21:55:43.209Z,45.51
2022-10-17T21:58:14.427Z,45.52
2022-10-17T22:00:44.824Z,46.00
2022-10-17T22:03:18.355Z,46.01
2022-10-17T22:05:50.681Z,45.50
2022-10-17T22:08:25.802Z,45.43
2022-10-17T22:10:56.117Z,45.13
2022-10-17T22:13:24.568Z,44.89
2022-10-17T22:15:53.341Z,44.72
2022-10-17T22:18:27.039Z,44.51
2022-10-17T22:21:02.774Z,44.65
2022-10-17T22:23:31.175Z,44.58
2022-10-17T22:26:01.502Z,44.62
2022-10-17T22:28:34.929Z,44.97
2022-10-17T22:31:05.620Z,45.02
2022-10-17T22:33:38.218Z,45.06
2022-10-17T22:36:09.888Z,45.14
2022-10-17T22:38:40.084Z,45.44
2022-10-17T22:41:08.480Z,45.57
2022-10-17T22:43:37.153Z,45.44
2022-10-17T22:46:06.598Z,45.61
2022-10-17T22:48:39.950Z,45.76
2022-10-17T22:51:10.972Z,45.84
2022-10-17T22:53:41.290Z,45.56
2022-10-17T22:56:17.849Z,45.93
2022-10-17T22:58:49.209Z,45.67
2022-10-17T23:01:24.042Z,45.50
2022-10-17T23:03:55.686Z,45.45
2022-10-17T23:06:25.482Z,45.70
2022-10-17T23:08:58.424Z,45.42
2022-10-17T23:11:29.389Z,45.75
2022-10-17T23:14:02.417Z,45.92
2022-10-17T23:16:32.054Z,45.53
2022-10-17T23:19:05.674Z,46.04
2022-10-17T23:21:36.109Z,45.50
2022-10-17T23:24:08.977Z,45.81
2022-10-17T23:26:42.300Z,45.52
2022-10-17T23:29:15.233Z,45.82
2022-10-17T23:31:47.936Z,46.07
2022-10-17T23:34:17.964Z,45.66
2022-10-17T23:36:51.550Z,45.56
2022-10-17T23:39:23.896Z,45.93
2022-10-17T23:41:54.527Z,45.84
2022-10-17T23:44:25.147Z,45.90
2022-10-17T23:46:55.609Z,45.90
2022-10-17T23:49:28.110Z,45.66
2022-10-17T23:52:04.883Z,45.55
2022-10-17T23:54:32.595Z,45.87
2022-10-17T23:57:03.139Z,45.66
2022-10-17T23:59:30.705Z,45.87
